sensor_id;sensor_type;location;lat;lon;timestamp;P1;durP1;ratioP1;P2;durP2;ratioP2
22973;SDS011;11653;50.848;4.584;2023-04-03T00:01:31;14.07;;;9.47;;
22973;SDS011;11653;50.848;4.584;2023-04-03T00:03:57;16.70;;;9.83;;
22973;SDS011;11653;50.848;4.584;2023-04-03T00:06:23;18.17;;;10.40;;
22973;SDS011;11653;50.848;4.584;2023-04-03T00:08:50;16.23;;;9.77;;
22973;SDS011;11653;50.848;4.584;2023-04-03T00:11:16;17.90;;;10.27;;
22973;SDS011;11653;50.848;4.584;2023-04-03T00:13:42;14.13;;;10.17;;
22973;SDS011;11653;50.848;4.584;2023-04-03T00:16:08;13.80;;;9.77;;
22973;SDS011;11653;50.848;4.584;2023-04-03T00:18:35;15.40;;;9.77;;
22973;SDS011;11653;50.848;4.584;2023-04-03T00:21:02;17.10;;;9.97;;
22973;SDS011;11653;50.848;4.584;2023-04-03T00:23:29;15.60;;;9.43;;
22973;SDS011;11653;50.848;4.584;2023-04-03T00:25:54;14.83;;;9.50;;
22973;SDS011;11653;50.848;4.584;2023-04-03T00:28:20;16.57;;;10.07;;
22973;SDS011;11653;50.848;4.584;2023-04-03T00:30:46;13.17;;;9.57;;
22973;SDS011;11653;50.848;4.584;2023-04-03T00:33:14;15.27;;;9.30;;
22973;SDS011;11653;50.848;4.584;2023-04-03T00:35:40;14.70;;;8.87;;
22973;SDS011;11653;50.848;4.584;2023-04-03T00:38:06;18.33;;;10.20;;
22973;SDS011;11653;50.848;4.584;2023-04-03T00:40:38;12.07;;;9.10;;
22973;SDS011;11653;50.848;4.584;2023-04-03T00:43:12;16.00;;;9.80;;
22973;SDS011;11653;50.848;4.584;2023-04-03T00:45:50;14.83;;;10.37;;
22973;SDS011;11653;50.848;4.584;2023-04-03T00:50:55;16.20;;;9.43;;
22973;SDS011;11653;50.848;4.584;2023-04-03T00:53:22;16.33;;;10.20;;
22973;SDS011;11653;50.848;4.584;2023-04-03T00:55:56;15.27;;;10.33;;
22973;SDS011;11653;50.848;4.584;2023-04-03T00:58:24;16.20;;;9.63;;
22973;SDS011;11653;50.848;4.584;2023-04-03T01:00:57;16.20;;;10.57;;
22973;SDS011;11653;50.848;4.584;2023-04-03T01:03:26;14.70;;;9.87;;
22973;SDS011;11653;50.848;4.584;2023-04-03T01:05:51;15.03;;;10.07;;
22973;SDS011;11653;50.848;4.584;2023-04-03T01:08:17;16.57;;;10.03;;
22973;SDS011;11653;50.848;4.584;2023-04-03T01:10:43;14.23;;;9.83;;
22973;SDS011;11653;50.848;4.584;2023-04-03T01:13:29;14.33;;;9.80;;
22973;SDS011;11653;50.848;4.584;2023-04-03T01:15:56;12.50;;;8.50;;
22973;SDS011;11653;50.848;4.584;2023-04-03T01:18:25;15.83;;;9.37;;
22973;SDS011;11653;50.848;4.584;2023-04-03T01:23:32;14.50;;;9.77;;
22973;SDS011;11653;50.848;4.584;2023-04-03T01:26:12;11.23;;;8.67;;
22973;SDS011;11653;50.848;4.584;2023-04-03T01:28:38;17.50;;;8.40;;
22973;SDS011;11653;50.848;4.584;2023-04-03T01:33:51;15.40;;;9.37;;
22973;SDS011;11653;50.848;4.584;2023-04-03T01:36:18;11.70;;;8.30;;
22973;SDS011;11653;50.848;4.584;2023-04-03T01:38:46;12.30;;;8.00;;
22973;SDS011;11653;50.848;4.584;2023-04-03T01:41:12;12.00;;;9.67;;
22973;SDS011;11653;50.848;4.584;2023-04-03T01:43:38;14.47;;;8.87;;
22973;SDS011;11653;50.848;4.584;2023-04-03T01:46:04;12.60;;;8.60;;
22973;SDS011;11653;50.848;4.584;2023-04-03T01:48:30;12.10;;;8.53;;
22973;SDS011;11653;50.848;4.584;2023-04-03T01:50:55;13.70;;;8.90;;
22973;SDS011;11653;50.848;4.584;2023-04-03T01:53:21;11.50;;;8.37;;
22973;SDS011;11653;50.848;4.584;2023-04-03T01:55:47;12.50;;;8.37;;
22973;SDS011;11653;50.848;4.584;2023-04-03T01:58:13;14.37;;;8.63;;
22973;SDS011;11653;50.848;4.584;2023-04-03T02:00:39;12.10;;;8.10;;
22973;SDS011;11653;50.848;4.584;2023-04-03T02:03:05;12.77;;;8.40;;
22973;SDS011;11653;50.848;4.584;2023-04-03T02:05:31;13.17;;;9.27;;
22973;SDS011;11653;50.848;4.584;2023-04-03T02:07:58;14.47;;;9.33;;
22973;SDS011;11653;50.848;4.584;2023-04-03T02:10:23;16.10;;;9.30;;
22973;SDS011;11653;50.848;4.584;2023-04-03T02:12:49;15.13;;;10.03;;
22973;SDS011;11653;50.848;4.584;2023-04-03T02:15:15;14.20;;;9.17;;
22973;SDS011;11653;50.848;4.584;2023-04-03T02:17:42;17.60;;;9.73;;
22973;SDS011;11653;50.848;4.584;2023-04-03T02:20:07;13.30;;;8.77;;
22973;SDS011;11653;50.848;4.584;2023-04-03T02:22:34;16.00;;;9.53;;
22973;SDS011;11653;50.848;4.584;2023-04-03T02:24:59;13.40;;;9.47;;
22973;SDS011;11653;50.848;4.584;2023-04-03T02:27:25;13.27;;;9.40;;
22973;SDS011;11653;50.848;4.584;2023-04-03T02:29:51;16.43;;;9.87;;
22973;SDS011;11653;50.848;4.584;2023-04-03T02:32:17;15.90;;;9.03;;
22973;SDS011;11653;50.848;4.584;2023-04-03T02:34:42;13.60;;;9.30;;
22973;SDS011;11653;50.848;4.584;2023-04-03T02:37:08;13.97;;;9.37;;
22973;SDS011;11653;50.848;4.584;2023-04-03T02:39:34;13.70;;;9.20;;
22973;SDS011;11653;50.848;4.584;2023-04-03T02:42:00;12.80;;;8.40;;
22973;SDS011;11653;50.848;4.584;2023-04-03T02:44:26;13.80;;;8.40;;
22973;SDS011;11653;50.848;4.584;2023-04-03T02:46:51;12.40;;;8.87;;
22973;SDS011;11653;50.848;4.584;2023-04-03T02:49:17;16.90;;;9.40;;
22973;SDS011;11653;50.848;4.584;2023-04-03T02:51:43;12.50;;;9.37;;
22973;SDS011;11653;50.848;4.584;2023-04-03T02:54:09;11.87;;;8.80;;
22973;SDS011;11653;50.848;4.584;2023-04-03T02:56:35;15.53;;;10.13;;
22973;SDS011;11653;50.848;4.584;2023-04-03T02:59:00;17.13;;;8.97;;
22973;SDS011;11653;50.848;4.584;2023-04-03T03:01:26;12.07;;;9.20;;
22973;SDS011;11653;50.848;4.584;2023-04-03T03:03:56;13.37;;;9.27;;
22973;SDS011;11653;50.848;4.584;2023-04-03T03:06:23;12.73;;;9.30;;
22973;SDS011;11653;50.848;4.584;2023-04-03T03:08:49;13.53;;;8.93;;
22973;SDS011;11653;50.848;4.584;2023-04-03T03:11:15;15.73;;;9.80;;
22973;SDS011;11653;50.848;4.584;2023-04-03T03:13:41;15.63;;;9.90;;
22973;SDS011;11653;50.848;4.584;2023-04-03T03:16:06;13.20;;;9.33;;
22973;SDS011;11653;50.848;4.584;2023-04-03T03:18:33;15.97;;;9.40;;
22973;SDS011;11653;50.848;4.584;2023-04-03T03:20:59;15.87;;;9.50;;
22973;SDS011;11653;50.848;4.584;2023-04-03T03:23:27;16.07;;;9.87;;
22973;SDS011;11653;50.848;4.584;2023-04-03T03:26:01;16.30;;;10.07;;
22973;SDS011;11653;50.848;4.584;2023-04-03T03:28:29;14.87;;;9.40;;
22973;SDS011;11653;50.848;4.584;2023-04-03T03:30:56;14.87;;;9.43;;
22973;SDS011;11653;50.848;4.584;2023-04-03T03:33:24;14.67;;;9.83;;
22973;SDS011;11653;50.848;4.584;2023-04-03T03:35:51;15.17;;;9.50;;
22973;SDS011;11653;50.848;4.584;2023-04-03T03:38:17;14.87;;;9.60;;
22973;SDS011;11653;50.848;4.584;2023-04-03T03:40:44;16.23;;;10.63;;
22973;SDS011;11653;50.848;4.584;2023-04-03T03:43:09;17.87;;;10.37;;
22973;SDS011;11653;50.848;4.584;2023-04-03T03:45:35;14.03;;;9.43;;
22973;SDS011;11653;50.848;4.584;2023-04-03T03:48:01;17.30;;;9.73;;
22973;SDS011;11653;50.848;4.584;2023-04-03T03:50:27;12.90;;;9.80;;
22973;SDS011;11653;50.848;4.584;2023-04-03T03:52:53;16.60;;;10.17;;
22973;SDS011;11653;50.848;4.584;2023-04-03T03:55:19;14.47;;;9.83;;
22973;SDS011;11653;50.848;4.584;2023-04-03T03:57:45;12.50;;;9.37;;
22973;SDS011;11653;50.848;4.584;2023-04-03T04:00:11;14.67;;;9.70;;
22973;SDS011;11653;50.848;4.584;2023-04-03T04:02:37;16.60;;;10.10;;
22973;SDS011;11653;50.848;4.584;2023-04-03T04:05:02;17.83;;;10.27;;
22973;SDS011;11653;50.848;4.584;2023-04-03T04:07:28;13.87;;;9.80;;
22973;SDS011;11653;50.848;4.584;2023-04-03T04:09:54;14.73;;;10.03;;
22973;SDS011;11653;50.848;4.584;2023-04-03T04:12:20;18.33;;;10.07;;
22973;SDS011;11653;50.848;4.584;2023-04-03T04:14:46;13.23;;;9.63;;
22973;SDS011;11653;50.848;4.584;2023-04-03T04:17:12;14.53;;;10.77;;
22973;SDS011;11653;50.848;4.584;2023-04-03T04:19:38;17.50;;;11.47;;
22973;SDS011;11653;50.848;4.584;2023-04-03T04:22:04;16.80;;;10.37;;
22973;SDS011;11653;50.848;4.584;2023-04-03T04:24:30;13.53;;;10.17;;
22973;SDS011;11653;50.848;4.584;2023-04-03T04:26:56;16.30;;;10.70;;
22973;SDS011;11653;50.848;4.584;2023-04-03T04:29:22;14.10;;;10.13;;
22973;SDS011;11653;50.848;4.584;2023-04-03T04:31:47;20.80;;;9.77;;
22973;SDS011;11653;50.848;4.584;2023-04-03T04:34:13;15.93;;;10.27;;
22973;SDS011;11653;50.848;4.584;2023-04-03T04:36:39;13.40;;;9.83;;
22973;SDS011;11653;50.848;4.584;2023-04-03T04:39:04;18.30;;;9.67;;
22973;SDS011;11653;50.848;4.584;2023-04-03T04:41:30;13.30;;;9.77;;
22973;SDS011;11653;50.848;4.584;2023-04-03T04:43:56;13.93;;;9.33;;
22973;SDS011;11653;50.848;4.584;2023-04-03T04:46:22;12.97;;;9.63;;
22973;SDS011;11653;50.848;4.584;2023-04-03T04:48:48;14.40;;;10.73;;
22973;SDS011;11653;50.848;4.584;2023-04-03T04:51:14;16.17;;;10.20;;
22973;SDS011;11653;50.848;4.584;2023-04-03T04:53:40;14.47;;;9.93;;
22973;SDS011;11653;50.848;4.584;2023-04-03T04:56:06;14.50;;;10.30;;
22973;SDS011;11653;50.848;4.584;2023-04-03T04:58:32;15.07;;;9.67;;
22973;SDS011;11653;50.848;4.584;2023-04-03T05:00:58;13.60;;;10.23;;
22973;SDS011;11653;50.848;4.584;2023-04-03T05:03:25;20.20;;;10.13;;
22973;SDS011;11653;50.848;4.584;2023-04-03T05:05:50;15.20;;;10.83;;
22973;SDS011;11653;50.848;4.584;2023-04-03T05:08:16;17.17;;;11.03;;
22973;SDS011;11653;50.848;4.584;2023-04-03T05:10:42;15.90;;;9.83;;
22973;SDS011;11653;50.848;4.584;2023-04-03T05:13:09;14.97;;;10.63;;
22973;SDS011;11653;50.848;4.584;2023-04-03T05:15:35;14.97;;;10.17;;
22973;SDS011;11653;50.848;4.584;2023-04-03T05:18:00;18.03;;;10.80;;
22973;SDS011;11653;50.848;4.584;2023-04-03T05:20:26;15.07;;;10.30;;
22973;SDS011;11653;50.848;4.584;2023-04-03T05:22:51;16.30;;;10.53;;
22973;SDS011;11653;50.848;4.584;2023-04-03T05:25:17;20.00;;;11.27;;
22973;SDS011;11653;50.848;4.584;2023-04-03T05:27:43;17.43;;;10.67;;
22973;SDS011;11653;50.848;4.584;2023-04-03T05:30:08;17.70;;;11.77;;
22973;SDS011;11653;50.848;4.584;2023-04-03T05:32:35;20.00;;;12.37;;
22973;SDS011;11653;50.848;4.584;2023-04-03T05:35:00;23.40;;;13.97;;
22973;SDS011;11653;50.848;4.584;2023-04-03T05:37:26;17.50;;;12.70;;
22973;SDS011;11653;50.848;4.584;2023-04-03T05:39:52;19.03;;;12.17;;
22973;SDS011;11653;50.848;4.584;2023-04-03T05:42:17;19.87;;;14.13;;
22973;SDS011;11653;50.848;4.584;2023-04-03T05:44:43;20.67;;;13.23;;
22973;SDS011;11653;50.848;4.584;2023-04-03T05:47:11;22.33;;;14.63;;
22973;SDS011;11653;50.848;4.584;2023-04-03T05:49:36;27.43;;;14.43;;
22973;SDS011;11653;50.848;4.584;2023-04-03T05:52:05;28.40;;;15.63;;
22973;SDS011;11653;50.848;4.584;2023-04-03T05:54:43;27.50;;;17.03;;
22973;SDS011;11653;50.848;4.584;2023-04-03T05:57:11;22.67;;;15.23;;
22973;SDS011;11653;50.848;4.584;2023-04-03T05:59:37;18.30;;;12.37;;
22973;SDS011;11653;50.848;4.584;2023-04-03T06:02:02;21.47;;;11.80;;
22973;SDS011;11653;50.848;4.584;2023-04-03T06:04:28;16.67;;;11.20;;
22973;SDS011;11653;50.848;4.584;2023-04-03T06:06:57;17.53;;;11.10;;
22973;SDS011;11653;50.848;4.584;2023-04-03T06:09:24;20.07;;;11.17;;
22973;SDS011;11653;50.848;4.584;2023-04-03T06:11:51;18.03;;;11.03;;
22973;SDS011;11653;50.848;4.584;2023-04-03T06:14:18;13.20;;;10.67;;
22973;SDS011;11653;50.848;4.584;2023-04-03T06:16:44;15.40;;;10.07;;
22973;SDS011;11653;50.848;4.584;2023-04-03T06:19:10;14.60;;;9.20;;
22973;SDS011;11653;50.848;4.584;2023-04-03T06:21:37;15.87;;;8.77;;
22973;SDS011;11653;50.848;4.584;2023-04-03T06:24:03;12.60;;;8.33;;
22973;SDS011;11653;50.848;4.584;2023-04-03T06:26:30;12.87;;;8.67;;
22973;SDS011;11653;50.848;4.584;2023-04-03T06:28:55;13.10;;;8.77;;
22973;SDS011;11653;50.848;4.584;2023-04-03T06:31:21;13.47;;;7.90;;
22973;SDS011;11653;50.848;4.584;2023-04-03T06:33:47;11.70;;;8.87;;
22973;SDS011;11653;50.848;4.584;2023-04-03T06:36:13;16.83;;;11.80;;
22973;SDS011;11653;50.848;4.584;2023-04-03T06:38:38;13.70;;;9.60;;
22973;SDS011;11653;50.848;4.584;2023-04-03T06:41:04;13.80;;;10.30;;
22973;SDS011;11653;50.848;4.584;2023-04-03T06:43:30;12.07;;;8.03;;
22973;SDS011;11653;50.848;4.584;2023-04-03T06:45:58;9.23;;;8.07;;
22973;SDS011;11653;50.848;4.584;2023-04-03T06:48:24;11.73;;;8.17;;
22973;SDS011;11653;50.848;4.584;2023-04-03T06:50:49;10.43;;;7.70;;
22973;SDS011;11653;50.848;4.584;2023-04-03T06:53:15;8.87;;;7.10;;
22973;SDS011;11653;50.848;4.584;2023-04-03T06:55:41;12.40;;;7.57;;
22973;SDS011;11653;50.848;4.584;2023-04-03T06:58:06;9.90;;;7.70;;
22973;SDS011;11653;50.848;4.584;2023-04-03T07:00:32;11.40;;;7.40;;
22973;SDS011;11653;50.848;4.584;2023-04-03T07:02:58;10.30;;;7.40;;
22973;SDS011;11653;50.848;4.584;2023-04-03T07:05:24;9.23;;;7.60;;
22973;SDS011;11653;50.848;4.584;2023-04-03T07:07:51;9.33;;;7.80;;
22973;SDS011;11653;50.848;4.584;2023-04-03T07:10:17;11.03;;;7.43;;
22973;SDS011;11653;50.848;4.584;2023-04-03T07:12:42;11.10;;;7.87;;
22973;SDS011;11653;50.848;4.584;2023-04-03T07:15:08;10.40;;;7.63;;
22973;SDS011;11653;50.848;4.584;2023-04-03T07:17:35;12.87;;;8.73;;
22973;SDS011;11653;50.848;4.584;2023-04-03T07:20:01;12.20;;;8.37;;
22973;SDS011;11653;50.848;4.584;2023-04-03T07:22:28;13.33;;;8.33;;
22973;SDS011;11653;50.848;4.584;2023-04-03T07:24:55;9.33;;;7.60;;
22973;SDS011;11653;50.848;4.584;2023-04-03T07:27:20;9.47;;;7.50;;
22973;SDS011;11653;50.848;4.584;2023-04-03T07:29:46;10.53;;;7.67;;
22973;SDS011;11653;50.848;4.584;2023-04-03T07:32:13;10.57;;;7.33;;
22973;SDS011;11653;50.848;4.584;2023-04-03T07:34:39;9.33;;;7.13;;
22973;SDS011;11653;50.848;4.584;2023-04-03T07:37:05;9.97;;;6.67;;
22973;SDS011;11653;50.848;4.584;2023-04-03T07:39:32;11.00;;;6.87;;
22973;SDS011;11653;50.848;4.584;2023-04-03T07:41:58;8.03;;;6.53;;
22973;SDS011;11653;50.848;4.584;2023-04-03T07:44:24;10.03;;;6.53;;
22973;SDS011;11653;50.848;4.584;2023-04-03T07:46:50;9.17;;;6.53;;
22973;SDS011;11653;50.848;4.584;2023-04-03T07:49:16;12.43;;;7.00;;
22973;SDS011;11653;50.848;4.584;2023-04-03T07:51:43;9.67;;;6.53;;
22973;SDS011;11653;50.848;4.584;2023-04-03T07:54:09;10.90;;;6.73;;
22973;SDS011;11653;50.848;4.584;2023-04-03T07:56:35;9.33;;;6.43;;
22973;SDS011;11653;50.848;4.584;2023-04-03T07:59:01;11.03;;;6.10;;
22973;SDS011;11653;50.848;4.584;2023-04-03T08:01:27;10.40;;;5.90;;
22973;SDS011;11653;50.848;4.584;2023-04-03T08:03:53;11.43;;;6.37;;
22973;SDS011;11653;50.848;4.584;2023-04-03T08:06:19;9.53;;;6.80;;
22973;SDS011;11653;50.848;4.584;2023-04-03T08:08:45;9.27;;;6.27;;
22973;SDS011;11653;50.848;4.584;2023-04-03T08:11:11;12.60;;;5.17;;
22973;SDS011;11653;50.848;4.584;2023-04-03T08:13:36;7.47;;;5.37;;
22973;SDS011;11653;50.848;4.584;2023-04-03T08:16:09;6.90;;;5.20;;
22973;SDS011;11653;50.848;4.584;2023-04-03T08:18:37;8.40;;;5.00;;
22973;SDS011;11653;50.848;4.584;2023-04-03T08:21:08;8.83;;;5.33;;
22973;SDS011;11653;50.848;4.584;2023-04-03T08:23:35;7.53;;;5.07;;
22973;SDS011;11653;50.848;4.584;2023-04-03T08:26:09;9.20;;;5.20;;
22973;SDS011;11653;50.848;4.584;2023-04-03T08:28:39;8.47;;;5.13;;
22973;SDS011;11653;50.848;4.584;2023-04-03T08:31:06;8.77;;;5.33;;
22973;SDS011;11653;50.848;4.584;2023-04-03T08:33:35;9.10;;;4.87;;
22973;SDS011;11653;50.848;4.584;2023-04-03T08:36:05;9.70;;;5.10;;
22973;SDS011;11653;50.848;4.584;2023-04-03T08:38:32;6.30;;;4.57;;
22973;SDS011;11653;50.848;4.584;2023-04-03T08:41:07;9.80;;;5.10;;
22973;SDS011;11653;50.848;4.584;2023-04-03T08:43:56;7.37;;;4.47;;
22973;SDS011;11653;50.848;4.584;2023-04-03T08:49:10;6.10;;;3.87;;
22973;SDS011;11653;50.848;4.584;2023-04-03T08:51:48;6.80;;;3.80;;
22973;SDS011;11653;50.848;4.584;2023-04-03T08:54:27;6.63;;;4.10;;
22973;SDS011;11653;50.848;4.584;2023-04-03T08:57:03;8.70;;;4.07;;
22973;SDS011;11653;50.848;4.584;2023-04-03T08:59:32;9.47;;;3.70;;
22973;SDS011;11653;50.848;4.584;2023-04-03T09:02:01;5.40;;;3.60;;
22973;SDS011;11653;50.848;4.584;2023-04-03T09:04:37;7.13;;;3.83;;
22973;SDS011;11653;50.848;4.584;2023-04-03T09:07:14;5.17;;;3.67;;
22973;SDS011;11653;50.848;4.584;2023-04-03T09:09:46;4.20;;;3.17;;
22973;SDS011;11653;50.848;4.584;2023-04-03T09:12:17;3.70;;;2.90;;
22973;SDS011;11653;50.848;4.584;2023-04-03T09:20:33;9.00;;;3.67;;
22973;SDS011;11653;50.848;4.584;2023-04-03T09:26:06;5.07;;;3.07;;
22973;SDS011;11653;50.848;4.584;2023-04-03T09:28:39;6.30;;;2.60;;
22973;SDS011;11653;50.848;4.584;2023-04-03T09:33:47;7.30;;;2.07;;
22973;SDS011;11653;50.848;4.584;2023-04-03T09:36:36;6.47;;;2.70;;
22973;SDS011;11653;50.848;4.584;2023-04-03T09:39:07;4.67;;;2.63;;
22973;SDS011;11653;50.848;4.584;2023-04-03T09:44:36;12.07;;;3.10;;
22973;SDS011;11653;50.848;4.584;2023-04-03T09:47:22;4.77;;;2.37;;
22973;SDS011;11653;50.848;4.584;2023-04-03T09:49:50;4.10;;;2.37;;
22973;SDS011;11653;50.848;4.584;2023-04-03T09:52:34;10.90;;;2.73;;
22973;SDS011;11653;50.848;4.584;2023-04-03T09:55:05;5.80;;;2.63;;
22973;SDS011;11653;50.848;4.584;2023-04-03T09:57:59;6.57;;;2.70;;
22973;SDS011;11653;50.848;4.584;2023-04-03T10:00:30;5.07;;;2.73;;
22973;SDS011;11653;50.848;4.584;2023-04-03T10:03:02;6.33;;;2.23;;
22973;SDS011;11653;50.848;4.584;2023-04-03T10:05:33;4.93;;;2.70;;
22973;SDS011;11653;50.848;4.584;2023-04-03T10:10:38;7.60;;;3.23;;
22973;SDS011;11653;50.848;4.584;2023-04-03T10:13:18;4.53;;;2.50;;
22973;SDS011;11653;50.848;4.584;2023-04-03T10:15:50;7.33;;;2.90;;
22973;SDS011;11653;50.848;4.584;2023-04-03T10:18:39;5.87;;;2.90;;
22973;SDS011;11653;50.848;4.584;2023-04-03T10:21:13;5.63;;;2.67;;
22973;SDS011;11653;50.848;4.584;2023-04-03T10:23:50;6.83;;;2.93;;
22973;SDS011;11653;50.848;4.584;2023-04-03T10:34:23;4.77;;;2.63;;
22973;SDS011;11653;50.848;4.584;2023-04-03T10:39:56;8.40;;;2.47;;
22973;SDS011;11653;50.848;4.584;2023-04-03T10:53:39;4.30;;;2.13;;
22973;SDS011;11653;50.848;4.584;2023-04-03T10:56:35;5.70;;;2.30;;
22973;SDS011;11653;50.848;4.584;2023-04-03T10:59:16;7.00;;;2.10;;
22973;SDS011;11653;50.848;4.584;2023-04-03T11:01:45;5.27;;;1.93;;
22973;SDS011;11653;50.848;4.584;2023-04-03T11:04:15;3.53;;;1.77;;
22973;SDS011;11653;50.848;4.584;2023-04-03T11:09:18;2.97;;;1.80;;
22973;SDS011;11653;50.848;4.584;2023-04-03T11:11:49;5.80;;;2.27;;
22973;SDS011;11653;50.848;4.584;2023-04-03T11:14:27;6.33;;;1.97;;
22973;SDS011;11653;50.848;4.584;2023-04-03T11:17:01;4.10;;;1.70;;
22973;SDS011;11653;50.848;4.584;2023-04-03T11:19:57;3.53;;;1.80;;
22973;SDS011;11653;50.848;4.584;2023-04-03T11:22:43;3.93;;;1.63;;
22973;SDS011;11653;50.848;4.584;2023-04-03T11:25:23;6.23;;;1.57;;
22973;SDS011;11653;50.848;4.584;2023-04-03T11:27:55;3.27;;;2.10;;
22973;SDS011;11653;50.848;4.584;2023-04-03T11:30:46;6.43;;;1.67;;
22973;SDS011;11653;50.848;4.584;2023-04-03T11:36:32;4.67;;;1.60;;
22973;SDS011;11653;50.848;4.584;2023-04-03T11:39:10;4.77;;;1.90;;
22973;SDS011;11653;50.848;4.584;2023-04-03T11:41:49;4.57;;;1.40;;
22973;SDS011;11653;50.848;4.584;2023-04-03T11:44:29;4.03;;;1.53;;
22973;SDS011;11653;50.848;4.584;2023-04-03T11:46:59;1.97;;;1.30;;
22973;SDS011;11653;50.848;4.584;2023-04-03T12:05:48;4.30;;;1.57;;
22973;SDS011;11653;50.848;4.584;2023-04-03T12:21:21;3.17;;;1.60;;
22973;SDS011;11653;50.848;4.584;2023-04-03T12:26:30;5.27;;;2.13;;
22973;SDS011;11653;50.848;4.584;2023-04-03T12:29:21;3.27;;;1.80;;
22973;SDS011;11653;50.848;4.584;2023-04-03T12:43:02;5.17;;;1.60;;
22973;SDS011;11653;50.848;4.584;2023-04-03T12:45:40;6.13;;;1.80;;
22973;SDS011;11653;50.848;4.584;2023-04-03T12:48:08;3.23;;;1.60;;
22973;SDS011;11653;50.848;4.584;2023-04-03T12:50:42;2.53;;;1.83;;
22973;SDS011;11653;50.848;4.584;2023-04-03T12:53:27;2.73;;;1.50;;
22973;SDS011;11653;50.848;4.584;2023-04-03T12:56:18;2.10;;;1.30;;
22973;SDS011;11653;50.848;4.584;2023-04-03T12:58:55;2.73;;;1.83;;
22973;SDS011;11653;50.848;4.584;2023-04-03T13:01:38;4.10;;;1.40;;
22973;SDS011;11653;50.848;4.584;2023-04-03T13:04:03;1.77;;;1.37;;
22973;SDS011;11653;50.848;4.584;2023-04-03T13:06:31;2.93;;;1.43;;
22973;SDS011;11653;50.848;4.584;2023-04-03T13:09:02;3.97;;;1.80;;
22973;SDS011;11653;50.848;4.584;2023-04-03T13:11:33;3.53;;;1.77;;
22973;SDS011;11653;50.848;4.584;2023-04-03T13:14:12;2.93;;;1.50;;
22973;SDS011;11653;50.848;4.584;2023-04-03T13:16:41;6.97;;;1.97;;
22973;SDS011;11653;50.848;4.584;2023-04-03T13:19:14;4.87;;;1.70;;
22973;SDS011;11653;50.848;4.584;2023-04-03T13:21:41;3.57;;;2.00;;
22973;SDS011;11653;50.848;4.584;2023-04-03T13:24:09;3.67;;;1.93;;
22973;SDS011;11653;50.848;4.584;2023-04-03T13:26:35;2.93;;;1.77;;
22973;SDS011;11653;50.848;4.584;2023-04-03T13:29:03;4.87;;;1.63;;
22973;SDS011;11653;50.848;4.584;2023-04-03T13:31:42;5.07;;;2.00;;
22973;SDS011;11653;50.848;4.584;2023-04-03T13:34:12;3.27;;;2.03;;
22973;SDS011;11653;50.848;4.584;2023-04-03T13:37:00;3.40;;;1.70;;
22973;SDS011;11653;50.848;4.584;2023-04-03T13:39:32;4.97;;;1.80;;
22973;SDS011;11653;50.848;4.584;2023-04-03T13:42:00;4.07;;;2.07;;
22973;SDS011;11653;50.848;4.584;2023-04-03T13:44:45;5.47;;;1.73;;
22973;SDS011;11653;50.848;4.584;2023-04-03T13:47:20;5.23;;;1.83;;
22973;SDS011;11653;50.848;4.584;2023-04-03T13:52:34;2.47;;;1.90;;
22973;SDS011;11653;50.848;4.584;2023-04-03T13:58:22;2.50;;;1.80;;
22973;SDS011;11653;50.848;4.584;2023-04-03T14:03:21;3.10;;;1.40;;
22973;SDS011;11653;50.848;4.584;2023-04-03T14:05:57;4.63;;;1.83;;
22973;SDS011;11653;50.848;4.584;2023-04-03T14:08:23;2.90;;;1.43;;
22973;SDS011;11653;50.848;4.584;2023-04-03T14:10:49;5.07;;;1.87;;
22973;SDS011;11653;50.848;4.584;2023-04-03T14:13:16;4.30;;;1.60;;
22973;SDS011;11653;50.848;4.584;2023-04-03T14:15:45;1.80;;;1.53;;
22973;SDS011;11653;50.848;4.584;2023-04-03T14:18:14;4.73;;;1.73;;
22973;SDS011;11653;50.848;4.584;2023-04-03T14:20:41;3.17;;;1.50;;
22973;SDS011;11653;50.848;4.584;2023-04-03T14:23:08;2.50;;;1.57;;
22973;SDS011;11653;50.848;4.584;2023-04-03T14:25:35;4.53;;;1.57;;
22973;SDS011;11653;50.848;4.584;2023-04-03T14:28:00;2.20;;;1.40;;
22973;SDS011;11653;50.848;4.584;2023-04-03T14:30:37;2.07;;;1.67;;
22973;SDS011;11653;50.848;4.584;2023-04-03T14:33:03;3.53;;;1.80;;
22973;SDS011;11653;50.848;4.584;2023-04-03T14:35:28;3.57;;;1.80;;
22973;SDS011;11653;50.848;4.584;2023-04-03T14:37:54;4.23;;;1.50;;
22973;SDS011;11653;50.848;4.584;2023-04-03T14:40:24;2.73;;;1.60;;
22973;SDS011;11653;50.848;4.584;2023-04-03T14:42:52;2.07;;;1.60;;
22973;SDS011;11653;50.848;4.584;2023-04-03T14:45:20;2.53;;;1.60;;
22973;SDS011;11653;50.848;4.584;2023-04-03T14:47:53;3.90;;;1.93;;
22973;SDS011;11653;50.848;4.584;2023-04-03T14:50:22;5.97;;;2.10;;
22973;SDS011;11653;50.848;4.584;2023-04-03T14:52:51;5.97;;;1.87;;
22973;SDS011;11653;50.848;4.584;2023-04-03T14:55:19;3.43;;;2.13;;
22973;SDS011;11653;50.848;4.584;2023-04-03T14:57:48;4.23;;;2.27;;
22973;SDS011;11653;50.848;4.584;2023-04-03T15:00:17;4.47;;;1.70;;
22973;SDS011;11653;50.848;4.584;2023-04-03T15:02:44;3.70;;;2.00;;
22973;SDS011;11653;50.848;4.584;2023-04-03T15:05:11;5.77;;;2.17;;
22973;SDS011;11653;50.848;4.584;2023-04-03T15:07:38;5.50;;;1.67;;
22973;SDS011;11653;50.848;4.584;2023-04-03T15:12:43;4.13;;;2.17;;
22973;SDS011;11653;50.848;4.584;2023-04-03T15:15:09;3.77;;;2.10;;
22973;SDS011;11653;50.848;4.584;2023-04-03T15:17:35;5.13;;;2.40;;
22973;SDS011;11653;50.848;4.584;2023-04-03T15:20:02;2.40;;;1.67;;
22973;SDS011;11653;50.848;4.584;2023-04-03T15:22:28;4.67;;;2.30;;
22973;SDS011;11653;50.848;4.584;2023-04-03T15:24:54;3.47;;;2.00;;
22973;SDS011;11653;50.848;4.584;2023-04-03T15:27:20;4.80;;;2.70;;
22973;SDS011;11653;50.848;4.584;2023-04-03T15:29:45;4.57;;;2.40;;
22973;SDS011;11653;50.848;4.584;2023-04-03T15:32:11;6.23;;;2.93;;
22973;SDS011;11653;50.848;4.584;2023-04-03T15:34:37;5.50;;;2.80;;
22973;SDS011;11653;50.848;4.584;2023-04-03T15:37:03;5.20;;;2.50;;
22973;SDS011;11653;50.848;4.584;2023-04-03T15:39:30;7.13;;;2.60;;
22973;SDS011;11653;50.848;4.584;2023-04-03T15:41:55;7.40;;;3.07;;
22973;SDS011;11653;50.848;4.584;2023-04-03T15:44:24;4.67;;;2.50;;
22973;SDS011;11653;50.848;4.584;2023-04-03T15:46:50;7.17;;;2.33;;
22973;SDS011;11653;50.848;4.584;2023-04-03T15:49:16;6.20;;;2.73;;
22973;SDS011;11653;50.848;4.584;2023-04-03T15:51:43;6.30;;;2.63;;
22973;SDS011;11653;50.848;4.584;2023-04-03T15:54:09;4.10;;;2.43;;
22973;SDS011;11653;50.848;4.584;2023-04-03T15:56:35;5.33;;;2.47;;
22973;SDS011;11653;50.848;4.584;2023-04-03T15:59:01;6.37;;;2.63;;
22973;SDS011;11653;50.848;4.584;2023-04-03T16:01:27;4.70;;;2.30;;
22973;SDS011;11653;50.848;4.584;2023-04-03T16:03:53;3.30;;;2.10;;
22973;SDS011;11653;50.848;4.584;2023-04-03T16:06:19;5.57;;;2.70;;
22973;SDS011;11653;50.848;4.584;2023-04-03T16:08:46;5.23;;;2.60;;
22973;SDS011;11653;50.848;4.584;2023-04-03T16:11:13;4.07;;;2.50;;
22973;SDS011;11653;50.848;4.584;2023-04-03T16:13:39;4.60;;;2.20;;
22973;SDS011;11653;50.848;4.584;2023-04-03T16:16:05;4.90;;;2.27;;
22973;SDS011;11653;50.848;4.584;2023-04-03T16:18:32;4.17;;;2.30;;
22973;SDS011;11653;50.848;4.584;2023-04-03T16:20:59;7.07;;;2.20;;
22973;SDS011;11653;50.848;4.584;2023-04-03T16:23:25;6.63;;;2.47;;
22973;SDS011;11653;50.848;4.584;2023-04-03T16:25:51;11.20;;;4.70;;
22973;SDS011;11653;50.848;4.584;2023-04-03T16:28:17;5.30;;;2.57;;
22973;SDS011;11653;50.848;4.584;2023-04-03T16:30:44;5.30;;;2.53;;
22973;SDS011;11653;50.848;4.584;2023-04-03T16:33:11;8.07;;;3.00;;
22973;SDS011;11653;50.848;4.584;2023-04-03T16:35:37;6.63;;;2.70;;
22973;SDS011;11653;50.848;4.584;2023-04-03T16:38:04;4.77;;;2.63;;